createdAt,value
2022-08-16T00:02:33.024Z,27.26
2022-08-16T00:05:00.497Z,27.25
2022-08-16T00:07:29.502Z,27.26
2022-08-16T00:09:57.793Z,27.26
2022-08-16T00:12:28.436Z,27.25
2022-08-16T00:14:57.210Z,27.18
2022-08-16T00:17:25.540Z,27.24
2022-08-16T00:19:55.186Z,27.24
2022-08-16T00:22:24.760Z,27.24
2022-08-16T00:24:54.545Z,27.23
2022-08-16T00:27:22.716Z,27.23
2022-08-16T00:30:08.754Z,27.13
2022-08-16T00:32:44.206Z,27.22
2022-08-16T00:35:15.770Z,27.22
2022-08-16T00:37:56.303Z,27.22
2022-08-16T00:40:34.467Z,27.20
2022-08-16T00:43:19.127Z,27.20
2022-08-16T00:46:33.184Z,27.20
2022-08-16T00:48:53.848Z,27.19
2022-08-16T00:51:23.514Z,27.19
2022-08-16T00:53:53.216Z,27.19
2022-08-16T00:56:56.876Z,27.19
2022-08-16T00:59:15.282Z,27.19
2022-08-16T01:01:44.765Z,27.19
2022-08-16T01:04:29.646Z,27.19
2022-08-16T01:07:03.761Z,27.18
2022-08-16T01:09:37.362Z,27.18
2022-08-16T01:12:08.498Z,27.18
2022-08-16T01:14:43.605Z,27.17
2022-08-16T01:17:14.524Z,27.17
2022-08-16T01:19:50.032Z,27.16
2022-08-16T01:22:47.062Z,27.17
2022-08-16T01:25:22.125Z,27.08
2022-08-16T01:27:52.802Z,27.15
2022-08-16T01:30:27.498Z,27.13
2022-08-16T01:33:14.157Z,27.14
2022-08-16T01:35:52.896Z,27.14
2022-08-16T01:38:28.450Z,27.15
2022-08-16T01:41:03.544Z,27.14
2022-08-16T01:43:33.533Z,27.13
2022-08-16T01:46:30.160Z,27.05
2022-08-16T01:49:02.487Z,27.12
2022-08-16T01:51:30.316Z,27.13
2022-08-16T01:53:58.304Z,27.13
2022-08-16T01:56:30.236Z,27.11
2022-08-16T01:59:04.411Z,27.11
2022-08-16T02:01:32.878Z,27.11
2022-08-16T02:04:10.425Z,27.11
2022-08-16T02:06:46.078Z,27.02
2022-08-16T02:09:19.868Z,27.11
2022-08-16T02:11:54.686Z,27.11
2022-08-16T02:14:27.617Z,27.10
2022-08-16T02:16:58.508Z,27.10
2022-08-16T02:19:58.457Z,27.09
2022-08-16T02:22:33.795Z,27.03
2022-08-16T02:25:06.745Z,27.09
2022-08-16T02:27:35.197Z,27.09
2022-08-16T02:30:07.541Z,27.09
2022-08-16T02:32:50.455Z,27.07
2022-08-16T02:35:23.137Z,27.08
2022-08-16T02:37:52.961Z,27.08
2022-08-16T02:40:24.489Z,27.07
2022-08-16T02:42:53.586Z,27.07
2022-08-16T02:45:24.871Z,27.08
2022-08-16T02:48:00.183Z,27.04
2022-08-16T02:50:54.814Z,27.06
2022-08-16T02:53:18.015Z,27.06
2022-08-16T02:55:46.182Z,27.06
2022-08-16T02:58:18.268Z,27.06
2022-08-16T03:00:45.456Z,27.05
2022-08-16T03:03:12.723Z,27.06
2022-08-16T03:05:50.047Z,27.05
2022-08-16T03:08:50.466Z,27.05
2022-08-16T03:11:16.692Z,27.06
2022-08-16T03:13:47.997Z,27.06
2022-08-16T03:16:36.610Z,27.05
2022-08-16T03:19:07.677Z,27.06
2022-08-16T03:21:37.397Z,27.06
2022-08-16T03:24:28.533Z,27.05
2022-08-16T03:27:02.724Z,27.03
2022-08-16T03:29:32.957Z,27.05
2022-08-16T03:32:03.380Z,27.05
2022-08-16T03:34:33.321Z,27.04
2022-08-16T03:37:00.532Z,27.03
2022-08-16T03:39:27.689Z,27.02
2022-08-16T03:41:59.767Z,27.03
2022-08-16T03:44:44.429Z,27.03
2022-08-16T03:47:18.547Z,27.02
2022-08-16T03:49:51.200Z,27.02
2022-08-16T03:52:23.672Z,27.03
2022-08-16T03:54:58.044Z,27.02
2022-08-16T03:57:31.798Z,27.02
2022-08-16T04:00:20.301Z,26.99
2022-08-16T04:03:09.613Z,27.00
2022-08-16T04:05:47.254Z,26.99
2022-08-16T04:08:22.495Z,26.98
2022-08-16T04:13:59.270Z,26.97
2022-08-16T04:16:09.344Z,26.97
2022-08-16T04:19:02.233Z,26.97
2022-08-16T04:21:32.074Z,26.97
2022-08-16T04:24:00.737Z,26.97
2022-08-16T04:26:30.754Z,26.96
2022-08-16T04:29:17.240Z,26.96
2022-08-16T04:31:56.385Z,26.96
2022-08-16T04:34:30.107Z,26.96
2022-08-16T04:37:00.995Z,26.90
2022-08-16T04:39:36.532Z,26.95
2022-08-16T04:42:11.444Z,26.88
2022-08-16T04:44:53.959Z,26.96
2022-08-16T04:47:31.609Z,26.95
2022-08-16T04:50:15.441Z,26.94
2022-08-16T04:53:03.176Z,26.95
2022-08-16T04:55:38.262Z,26.95
2022-08-16T04:58:45.901Z,26.95
2022-08-16T05:00:57.372Z,26.95
2022-08-16T05:03:24.289Z,26.95
2022-08-16T05:05:59.120Z,26.95
2022-08-16T05:08:31.300Z,26.95
2022-08-16T05:11:08.300Z,26.96
2022-08-16T05:13:41.337Z,26.86
2022-08-16T05:16:31.376Z,26.97
2022-08-16T05:19:06.284Z,26.97
2022-08-16T05:21:41.091Z,26.97
2022-08-16T05:24:10.662Z,26.97
2022-08-16T05:26:43.105Z,26.98
2022-08-16T05:29:14.749Z,26.97
2022-08-16T05:31:56.864Z,26.98
2022-08-16T05:34:25.071Z,26.99
2022-08-16T05:36:57.225Z,26.99
2022-08-16T05:39:29.285Z,27.00
2022-08-16T05:42:00.780Z,26.73
2022-08-16T05:44:28.365Z,27.01
2022-08-16T05:47:00.342Z,27.03
2022-08-16T05:49:38.364Z,27.05
2022-08-16T05:52:13.620Z,27.06
2022-08-16T05:54:47.486Z,27.04
2022-08-16T05:57:26.111Z,27.04
2022-08-16T06:00:07.100Z,27.08
2022-08-16T06:02:44.671Z,27.08
2022-08-16T06:05:30.746Z,27.07
2022-08-16T06:08:04.558Z,27.08
2022-08-16T06:10:35.636Z,27.09
2022-08-16T06:13:04.315Z,27.09
2022-08-16T06:15:31.736Z,27.10
2022-08-16T06:17:59.411Z,27.11
2022-08-16T06:20:35.176Z,27.11
2022-08-16T06:23:18.091Z,27.10
2022-08-16T06:26:07.955Z,27.07
2022-08-16T06:28:39.606Z,27.11
2022-08-16T06:31:13.571Z,27.12
2022-08-16T06:33:44.736Z,27.12
2022-08-16T06:36:14.287Z,27.13
2022-08-16T06:38:56.085Z,27.12
2022-08-16T06:41:46.184Z,27.11
2022-08-16T06:44:38.716Z,27.14
2022-08-16T06:47:17.038Z,27.13
2022-08-16T06:49:52.720Z,27.13
2022-08-16T06:52:59.865Z,27.12
2022-08-16T06:55:13.622Z,27.05
2022-08-16T06:57:46.147Z,27.12
2022-08-16T07:00:24.055Z,27.13
2022-08-16T07:03:27.419Z,27.15
2022-08-16T07:05:52.319Z,27.16
2022-08-16T07:08:27.596Z,27.15
2022-08-16T07:10:55.517Z,27.09
2022-08-16T07:13:51.708Z,27.17
2022-08-16T07:16:15.357Z,27.18
2022-08-16T07:21:07.864Z,26.81
2022-08-16T07:23:39.256Z,27.20
2022-08-16T07:26:24.878Z,27.20
2022-08-16T07:28:55.175Z,27.20
2022-08-16T07:31:22.921Z,27.17
2022-08-16T07:33:51.899Z,27.21
2022-08-16T07:36:25.752Z,27.22
2022-08-16T07:38:53.179Z,27.22
2022-08-16T07:41:21.957Z,27.22
2022-08-16T07:43:55.757Z,27.23
2022-08-16T07:46:37.465Z,27.23
2022-08-16T07:49:14.552Z,27.24
2022-08-16T07:51:41.558Z,27.24
2022-08-16T07:54:17.003Z,27.25
2022-08-16T07:56:53.132Z,27.26
2022-08-16T07:59:20.288Z,27.27
2022-08-16T08:01:47.658Z,27.26
2022-08-16T08:04:20.299Z,27.27
2022-08-16T08:06:51.140Z,27.27
2022-08-16T08:09:18.703Z,27.28
2022-08-16T08:12:01.254Z,27.28
2022-08-16T08:14:37.536Z,27.28
2022-08-16T08:17:08.631Z,27.29
2022-08-16T08:19:37.361Z,27.29
2022-08-16T08:22:21.985Z,27.30
2022-08-16T08:24:53.789Z,27.30
2022-08-16T08:27:26.996Z,27.30
2022-08-16T08:30:49.969Z,27.31
2022-08-16T08:32:58.023Z,27.31
2022-08-16T08:35:30.471Z,27.32
2022-08-16T08:37:58.923Z,27.32
2022-08-16T08:40:30.016Z,27.32
2022-08-16T08:43:00.622Z,27.32
2022-08-16T08:45:48.824Z,27.33
2022-08-16T08:48:34.219Z,27.33
2022-08-16T08:51:15.314Z,27.35
2022-08-16T08:53:58.047Z,27.35
2022-08-16T08:56:32.305Z,27.35
2022-08-16T08:59:13.091Z,27.35
2022-08-16T09:01:56.613Z,27.35
2022-08-16T09:04:27.473Z,27.36
2022-08-16T09:06:55.715Z,27.37
2022-08-16T09:09:23.980Z,27.38
2022-08-16T09:12:04.226Z,27.38
2022-08-16T09:17:11.648Z,27.40
2022-08-16T09:19:44.428Z,27.41
2022-08-16T09:22:19.797Z,27.42
2022-08-16T09:24:53.633Z,27.42
2022-08-16T09:27:25.353Z,27.43
2022-08-16T09:30:00.029Z,27.45
2022-08-16T09:32:30.577Z,27.45
2022-08-16T09:34:59.427Z,27.48
2022-08-16T09:37:29.677Z,27.41
2022-08-16T09:39:59.509Z,27.52
2022-08-16T09:42:27.712Z,27.54
2022-08-16T09:45:11.908Z,27.55
2022-08-16T09:47:56.538Z,27.56
2022-08-16T09:50:36.743Z,27.54
2022-08-16T09:53:15.440Z,27.58
2022-08-16T09:58:10.618Z,27.59
2022-08-16T10:00:44.145Z,27.61
2022-08-16T10:03:11.803Z,27.63
2022-08-16T10:05:38.591Z,27.62
2022-08-16T10:08:25.803Z,27.63
2022-08-16T10:11:11.103Z,27.65
2022-08-16T10:13:39.601Z,27.65
2022-08-16T10:18:56.319Z,27.64
2022-08-16T10:21:09.552Z,27.69
2022-08-16T10:23:36.705Z,27.71
2022-08-16T10:27:19.015Z,27.72
2022-08-16T10:28:54.089Z,27.74
2022-08-16T10:31:44.153Z,27.75
2022-08-16T10:34:30.980Z,27.75
2022-08-16T10:36:55.076Z,27.78
2022-08-16T10:39:21.690Z,27.74
2022-08-16T10:41:51.219Z,27.78
2022-08-16T10:44:17.868Z,27.78
2022-08-16T10:46:45.233Z,27.79
2022-08-16T10:49:13.096Z,27.80
2022-08-16T10:52:02.836Z,27.76
2022-08-16T10:54:32.942Z,27.73
2022-08-16T10:57:01.348Z,27.83
2022-08-16T10:59:45.985Z,27.84
2022-08-16T11:03:37.751Z,27.86
2022-08-16T11:05:14.160Z,27.86
2022-08-16T11:07:52.011Z,27.87
2022-08-16T11:13:57.274Z,27.90
2022-08-16T11:19:05.554Z,27.92
2022-08-16T11:21:37.665Z,27.93
2022-08-16T11:24:41.558Z,27.93
2022-08-16T11:27:23.463Z,27.90
2022-08-16T11:29:54.977Z,27.96
2022-08-16T11:32:31.228Z,27.96
2022-08-16T11:35:10.587Z,27.97
2022-08-16T11:40:52.811Z,27.99
2022-08-16T11:43:22.887Z,27.98
2022-08-16T11:45:54.041Z,27.99
2022-08-16T11:48:25.156Z,27.94
2022-08-16T11:50:52.537Z,28.00
2022-08-16T11:53:21.089Z,28.01
2022-08-16T11:55:54.471Z,27.94
2022-08-16T11:58:25.387Z,28.03
2022-08-16T12:00:53.801Z,27.97
2022-08-16T12:03:34.622Z,28.04
2022-08-16T12:06:11.174Z,28.04
2022-08-16T12:08:53.111Z,28.05
2022-08-16T12:11:19.679Z,28.06
2022-08-16T12:13:49.356Z,28.02
2022-08-16T12:16:20.669Z,28.06
2022-08-16T12:21:21.085Z,28.07
2022-08-16T12:23:49.248Z,28.09
2022-08-16T12:26:17.204Z,28.09
2022-08-16T12:28:55.908Z,28.11
2022-08-16T12:31:24.536Z,28.11
2022-08-16T12:33:54.591Z,28.12
2022-08-16T12:36:26.218Z,28.11
2022-08-16T12:38:56.999Z,28.13
2022-08-16T12:41:24.575Z,28.14
2022-08-16T12:43:57.268Z,28.14
2022-08-16T12:46:28.616Z,28.14
2022-08-16T12:49:00.160Z,28.16
2022-08-16T12:51:59.225Z,28.16
2022-08-16T12:54:23.922Z,28.16
2022-08-16T12:56:50.874Z,28.17
2022-08-16T12:59:20.454Z,28.17
2022-08-16T13:01:47.974Z,28.15
2022-08-16T13:04:20.222Z,28.17
2022-08-16T13:06:48.908Z,28.18
2022-08-16T13:09:26.365Z,28.17
2022-08-16T13:12:17.609Z,28.19
2022-08-16T13:14:45.144Z,28.18
2022-08-16T13:17:18.695Z,28.19
2022-08-16T13:22:03.294Z,28.22
2022-08-16T13:24:29.981Z,28.22
2022-08-16T13:26:56.762Z,28.22
2022-08-16T13:29:23.620Z,28.23
2022-08-16T13:31:50.500Z,27.84
2022-08-16T13:34:18.763Z,28.23
2022-08-16T13:36:49.281Z,28.23
2022-08-16T13:39:18.075Z,28.25
2022-08-16T13:41:44.792Z,28.24
2022-08-16T13:44:21.229Z,28.21
2022-08-16T13:46:47.835Z,28.25
2022-08-16T13:49:14.660Z,28.25
2022-08-16T13:51:41.296Z,28.26
2022-08-16T13:54:08.171Z,28.26
2022-08-16T13:56:39.655Z,28.26
2022-08-16T13:59:20.643Z,28.25
2022-08-16T14:01:54.536Z,28.25
2022-08-16T14:04:28.138Z,28.26
2022-08-16T14:06:57.137Z,28.27
2022-08-16T14:09:24.548Z,28.25
2022-08-16T14:11:54.450Z,28.26
2022-08-16T14:14:29.297Z,28.26
2022-08-16T14:17:01.613Z,28.27
2022-08-16T14:19:29.820Z,28.18
2022-08-16T14:22:15.092Z,28.26
2022-08-16T14:24:47.707Z,28.29
2022-08-16T14:27:17.093Z,28.19
2022-08-16T14:29:45.159Z,28.28
2022-08-16T14:32:33.644Z,28.28
2022-08-16T14:35:10.998Z,28.28
2022-08-16T14:37:39.907Z,28.28
2022-08-16T14:40:13.708Z,28.28
2022-08-16T14:42:41.496Z,28.29
2022-08-16T14:45:13.420Z,28.28
2022-08-16T14:47:40.684Z,28.29
2022-08-16T14:50:13.008Z,28.29
2022-08-16T14:52:55.132Z,28.29
2022-08-16T14:57:54.597Z,28.29
2022-08-16T15:00:33.013Z,28.29
2022-08-16T15:03:04.592Z,28.29
2022-08-16T15:05:32.226Z,28.29
2022-08-16T15:07:59.105Z,28.31
2022-08-16T15:11:41.944Z,28.31
2022-08-16T15:16:35.436Z,28.30
2022-08-16T15:19:03.473Z,28.30
2022-08-16T15:21:30.749Z,28.27
2022-08-16T15:23:58.803Z,28.29
2022-08-16T15:26:42.627Z,28.24
2022-08-16T15:29:12.030Z,28.29
2022-08-16T15:31:44.388Z,28.28
2022-08-16T15:34:22.122Z,28.29
2022-08-16T15:36:53.120Z,28.28
2022-08-16T15:39:30.483Z,28.30
2022-08-16T15:42:11.057Z,28.31
2022-08-16T15:44:50.880Z,28.26
2022-08-16T15:47:25.965Z,28.24
2022-08-16T15:49:55.581Z,28.32
2022-08-16T15:52:34.557Z,28.26
2022-08-16T15:55:07.400Z,28.33
2022-08-16T15:57:41.543Z,28.31
2022-08-16T16:00:20.627Z,28.35
2022-08-16T16:02:49.312Z,28.37
2022-08-16T16:05:17.043Z,28.36
2022-08-16T16:07:56.724Z,28.36
2022-08-16T16:10:32.077Z,28.37
2022-08-16T16:13:01.668Z,28.36
2022-08-16T16:15:32.961Z,28.36
2022-08-16T16:18:09.049Z,28.38
2022-08-16T16:20:39.654Z,28.37
2022-08-16T16:23:10.459Z,28.37
2022-08-16T16:25:38.851Z,28.32
2022-08-16T16:28:12.706Z,28.39
2022-08-16T16:30:56.540Z,28.38
2022-08-16T16:33:24.956Z,28.39
2022-08-16T16:35:55.698Z,28.39
2022-08-16T16:38:28.737Z,28.39
2022-08-16T16:40:55.897Z,28.39
2022-08-16T16:43:26.084Z,28.39
2022-08-16T16:45:58.794Z,28.39
2022-08-16T16:48:34.386Z,28.30
2022-08-16T16:51:09.445Z,28.39
2022-08-16T16:53:40.962Z,28.40
2022-08-16T16:56:19.317Z,28.40
2022-08-16T16:59:00.939Z,28.40
2022-08-16T17:01:56.682Z,28.38
2022-08-16T17:04:27.436Z,28.42
2022-08-16T17:07:01.473Z,28.38
2022-08-16T17:09:28.343Z,28.41
2022-08-16T17:11:56.951Z,28.42
2022-08-16T17:14:33.313Z,28.42
2022-08-16T17:17:06.514Z,28.42
2022-08-16T17:19:33.982Z,28.42
2022-08-16T17:22:14.303Z,28.35
2022-08-16T17:24:50.768Z,28.43
2022-08-16T17:27:33.156Z,28.44
2022-08-16T17:30:14.917Z,28.44
2022-08-16T17:35:37.140Z,28.43
2022-08-16T17:38:06.970Z,28.45
2022-08-16T17:39:27.125Z,28.44
2022-08-16T17:40:47.064Z,28.45
2022-08-16T17:43:32.339Z,28.48
2022-08-16T17:45:59.383Z,28.47
2022-08-16T17:48:27.081Z,28.47
2022-08-16T17:50:54.999Z,28.47
2022-08-16T17:53:22.132Z,28.45
2022-08-16T17:55:50.451Z,28.35
2022-08-16T17:58:22.624Z,28.40
2022-08-16T18:00:53.586Z,28.39
2022-08-16T18:04:06.865Z,28.37
2022-08-16T18:06:20.873Z,28.35
2022-08-16T18:08:48.356Z,28.33
2022-08-16T18:11:26.012Z,28.32
2022-08-16T18:13:54.844Z,28.30
2022-08-16T18:16:21.550Z,28.33
2022-08-16T18:18:48.232Z,28.30
2022-08-16T18:21:33.770Z,28.30
2022-08-16T18:24:00.795Z,28.27
2022-08-16T18:26:27.525Z,28.24
2022-08-16T18:28:54.303Z,28.24
2022-08-16T18:31:20.951Z,28.21
2022-08-16T18:33:47.812Z,28.20
2022-08-16T18:36:20.396Z,28.19
2022-08-16T18:38:49.365Z,28.17
2022-08-16T18:41:17.064Z,28.16
2022-08-16T18:44:14.145Z,28.13
2022-08-16T18:46:30.572Z,28.12
2022-08-16T18:48:57.547Z,28.08
2022-08-16T18:51:25.509Z,28.07
2022-08-16T18:53:52.968Z,28.04
2022-08-16T18:56:19.800Z,27.95
2022-08-16T18:58:46.427Z,28.02
2022-08-16T19:01:13.467Z,28.00
2022-08-16T19:03:40.336Z,27.99
2022-08-16T19:06:14.209Z,27.97
2022-08-16T19:08:43.802Z,27.93
2022-08-16T19:11:14.908Z,27.93
2022-08-16T19:13:44.235Z,27.90
2022-08-16T19:16:12.490Z,27.87
2022-08-16T19:18:39.478Z,27.85
2022-08-16T19:21:07.986Z,27.81
2022-08-16T19:23:37.299Z,27.79
2022-08-16T19:26:24.574Z,27.75
2022-08-16T19:28:58.554Z,27.72
2022-08-16T19:31:34.021Z,27.69
2022-08-16T19:34:02.137Z,27.67
2022-08-16T19:36:35.954Z,27.64
2022-08-16T19:39:06.910Z,27.62
2022-08-16T19:41:40.873Z,27.61
2022-08-16T19:44:08.133Z,27.50
2022-08-16T19:46:35.691Z,27.56
2022-08-16T19:49:03.007Z,27.55
2022-08-16T19:51:30.087Z,27.53
2022-08-16T19:53:56.809Z,27.52
2022-08-16T19:56:25.761Z,27.49
2022-08-16T19:59:17.551Z,27.46
2022-08-16T20:01:42.225Z,27.45
2022-08-16T20:04:12.298Z,27.41
2022-08-16T20:06:40.336Z,27.40
2022-08-16T20:09:07.055Z,27.38
2022-08-16T20:11:35.341Z,27.36
2022-08-16T20:14:02.716Z,27.35
2022-08-16T20:16:29.445Z,27.33
2022-08-16T20:18:56.144Z,27.31
2022-08-16T20:21:22.918Z,27.30
2022-08-16T20:23:49.517Z,27.22
2022-08-16T20:26:16.382Z,27.27
2022-08-16T20:28:52.525Z,27.26
2022-08-16T20:31:24.062Z,27.25
2022-08-16T20:33:52.236Z,27.24
2022-08-16T20:36:19.091Z,27.19
2022-08-16T20:38:47.699Z,27.19
2022-08-16T20:41:16.184Z,27.17
2022-08-16T20:43:43.338Z,27.06
2022-08-16T20:46:10.638Z,27.06
2022-08-16T20:48:37.223Z,27.10
2022-08-16T20:51:04.193Z,27.09
2022-08-16T20:53:30.882Z,27.08
2022-08-16T20:55:57.674Z,27.07
2022-08-16T20:58:24.246Z,27.05
2022-08-16T21:00:50.958Z,27.03
2022-08-16T21:03:17.593Z,27.02
2022-08-16T21:05:45.302Z,27.02
2022-08-16T21:10:41.533Z,26.98
2022-08-16T21:13:13.552Z,26.97
2022-08-16T21:15:40.213Z,26.97
2022-08-16T21:18:06.815Z,26.96
2022-08-16T21:20:34.040Z,26.94
2022-08-16T21:23:05.729Z,26.93
2022-08-16T21:25:32.989Z,26.90
2022-08-16T21:28:38.966Z,26.88
2022-08-16T21:30:49.398Z,26.84
2022-08-16T21:33:18.799Z,26.83
2022-08-16T21:35:47.695Z,26.70
2022-08-16T21:38:30.240Z,26.80
2022-08-16T21:41:00.112Z,26.68
2022-08-16T21:43:31.712Z,26.66
2022-08-16T21:45:59.005Z,26.72
2022-08-16T21:48:35.177Z,26.71
2022-08-16T21:51:05.387Z,26.67
2022-08-16T21:53:33.257Z,26.66
2022-08-16T21:56:01.194Z,26.64
2022-08-16T21:58:28.485Z,26.61
2022-08-16T22:00:55.812Z,26.51
2022-08-16T22:03:23.443Z,26.56
2022-08-16T22:06:05.875Z,26.54
2022-08-16T22:08:45.660Z,26.53
2022-08-16T22:11:22.676Z,26.51
2022-08-16T22:13:57.328Z,26.46
2022-08-16T22:16:26.597Z,26.46
2022-08-16T22:18:53.276Z,26.45
2022-08-16T22:21:20.245Z,26.42
2022-08-16T22:23:55.178Z,26.41
2022-08-16T22:26:30.142Z,26.41
2022-08-16T22:28:59.794Z,26.40
2022-08-16T22:31:27.526Z,26.40
2022-08-16T22:33:56.596Z,26.35
2022-08-16T22:36:28.174Z,26.37
2022-08-16T22:38:58.087Z,26.36
2022-08-16T22:41:25.863Z,26.35
2022-08-16T22:43:52.572Z,26.35
2022-08-16T22:46:19.620Z,26.34
2022-08-16T22:48:50.391Z,26.33
2022-08-16T22:51:19.184Z,26.31
2022-08-16T22:53:45.866Z,26.29
2022-08-16T22:56:12.756Z,26.21
2022-08-16T22:58:39.643Z,26.28
2022-08-16T23:01:08.334Z,26.36
2022-08-16T23:03:36.008Z,26.43
2022-08-16T23:06:06.488Z,26.53
2022-08-16T23:08:39.569Z,26.62
2022-08-16T23:11:14.537Z,26.70
2022-08-16T23:13:49.969Z,26.77
2022-08-16T23:16:34.276Z,26.84
2022-08-16T23:19:07.096Z,26.89
2022-08-16T23:21:35.420Z,26.94
2022-08-16T23:24:02.059Z,26.98
2022-08-16T23:26:43.793Z,27.02
2022-08-16T23:29:23.864Z,27.04
2022-08-16T23:31:53.834Z,27.06
2022-08-16T23:34:21.969Z,27.06
2022-08-16T23:36:48.581Z,27.08
2022-08-16T23:39:15.225Z,27.07
2022-08-16T23:41:41.926Z,27.09
2022-08-16T23:44:44.148Z,27.10
2022-08-16T23:46:55.596Z,27.12
2022-08-16T23:49:58.439Z,27.13
2022-08-16T23:52:10.130Z,27.14
2022-08-16T23:54:37.098Z,27.14
2022-08-16T23:57:03.888Z,27.14
2022-08-16T23:59:31.766Z,27.16
